Bookmark and Share
Track history (hours):
 

Bergamot Ace

Last reported at 2014-Apr-07 01:06 UTC. Time now 2014-Apr-19 02:02 UTC.
Position S 32°51' E 017°19'.
Warning: this ship's position is 12 days out of date.

Length 186 m; draft 7.3 m.

Type: Cargo ship. MMSI: 319740000.

NotesDate/timePositionNaut miles runAvg speedWind from/ knotsBaromVisibWave heightAir tempDewpointWater temp
2014-Apr-07 01:06S 32°51' E 017°19'1617.7
2014-Apr-07 00:13S 33°05' E 017°25'1618.0
2014-Apr-06 23:21S 33°20' E 017°31'1518.0
2014-Apr-06 22:30S 33°35' E 017°37'1818.3
2014-Apr-06 21:30S 33°52' E 017°45'1818.5
2014-Apr-06 20:33S 34°05' E 017°59'2119.8
2014-Apr-06 19:30S 34°21' E 018°15'1819.0
2014-Apr-06 18:32S 34°32' E 018°33'1818.6
2014-Apr-06 17:33S 34°40' E 018°53'1918.7
2014-Apr-06 16:33S 34°49' E 019°13'2018.6
2014-Apr-06 15:28S 34°58' E 019°35'2518.2
2014-Apr-06 14:06S 35°05' E 020°04'1818.0
2014-Apr-06 13:04S 35°01' E 020°26'8418.4
2014-Apr-06 08:29S 34°45' E 022°07'1918.9
2014-Apr-06 07:30S 34°40' E 022°29'11318.6
2014-Apr-06 01:24S 34°25' E 024°46'3517.8
2014-Apr-05 23:25S 34°25' E 025°28'1618.4
2014-Apr-05 22:33S 34°18' E 025°46'3918.8
2014-Apr-05 20:29S 34°03' E 026°29'25417.9
2014-Apr-05 06:19S 31°16' E 030°17'7315.2
2014-Apr-05 01:31S 30°12' E 030°57'1515.4
2014-Apr-05 00:33S 29°59' E 031°05'7 6.8
2014-Apr-04 23:33S 29°53' E 031°03'1 0.8
2014-Apr-04 22:21S 29°52' E 031°02'0 0.0
2014-Apr-04 20:09S 29°52' E 031°02'0 0.0
2014-Apr-04 19:33S 29°52' E 031°02'0 0.0
2014-Apr-04 18:33S 29°52' E 031°02'0 0.0
2014-Apr-04 17:27S 29°52' E 031°02'0 0.0
2014-Apr-04 16:33S 29°52' E 031°02'0 0.0
2014-Apr-04 15:33S 29°52' E 031°02'0 0.0
2014-Apr-04 14:33S 29°52' E 031°02'0 0.0
2014-Apr-04 13:33S 29°52' E 031°02'0 0.2
2014-Apr-04 12:33S 29°52' E 031°02'7 6.8
2014-Apr-04 11:33S 29°48' E 031°08'3 2.8
2014-Apr-04 10:33S 29°46' E 031°11'1514.7
2014-Apr-04 09:33S 29°37' E 031°24'1717.0
2014-Apr-04 08:33S 29°27' E 031°39'6415.6
2014-Apr-04 04:27S 28°42' E 032°31'5818.7
2014-Apr-04 01:22S 27°48' E 032°56'  
2014-Mar-31 14:32S 29°29' E 032°03'1010.5
2014-Mar-31 13:33S 29°38' E 031°56'1010.1
2014-Mar-31 12:33S 29°46' E 031°50'1010.1
2014-Mar-31 11:33S 29°52' E 031°41'1312.5
2014-Mar-31 10:33S 30°02' E 031°31'1413.6
2014-Mar-31 09:32S 30°13' E 031°21'1313.3
2014-Mar-31 08:33S 30°23' E 031°11'1313.5
2014-Mar-31 07:33S 30°33' E 031°02'13416.3
2014-Mar-30 23:22S 32°12' E 029°16'1314.4
2014-Mar-30 22:29S 32°21' E 029°06'16913.9
2014-Mar-30 10:17S 34°05' E 026°26'3416.4
2014-Mar-30 08:11S 34°18' E 025°47'1319.3
2014-Mar-30 07:32S 34°24' E 025°34'3716.9
2014-Mar-30 05:20S 34°33' E 024°50'29015.3
2014-Mar-29 10:24S 34°43' E 018°58'1417.1
2014-Mar-29 09:33S 34°37' E 018°42'1716.9
2014-Mar-29 08:33S 34°29' E 018°23'1616.0
2014-Mar-29 07:32S 34°17' E 018°10'1616.0
2014-Mar-29 06:33S 34°06' E 017°57'1816.5
2014-Mar-29 05:29S 33°51' E 017°46'3316.4
2014-Mar-29 03:30S 33°20' E 017°32'8416.0
2014-Mar-28 22:14S 32°01' E 016°58'1115.9
2014-Mar-28 21:33S 31°51' E 016°53'4815.4
2014-Mar-28 18:24S 31°06' E 016°34'3115.6
2014-Mar-28 16:25S 30°36' E 016°23'  

Dump ship's entire track history

sailing weather and tide predictions

Bergamot Ace — ZGAS5 — position and weather